createdAt,value
2023-04-12T00:02:23.380Z,8.73
2023-04-12T00:04:55.805Z,8.74
2023-04-12T00:07:25.098Z,8.69
2023-04-12T00:09:52.200Z,8.67
2023-04-12T00:12:19.767Z,8.69
2023-04-12T00:14:47.817Z,8.71
2023-04-12T00:17:15.119Z,8.68
2023-04-12T00:19:42.259Z,8.69
2023-04-12T00:22:10.274Z,8.67
2023-04-12T00:24:41.093Z,8.69
2023-04-12T00:27:09.095Z,8.67
2023-04-12T00:29:36.568Z,8.69
2023-04-12T00:32:05.809Z,8.62
2023-04-12T00:34:33.064Z,8.61
2023-04-12T00:37:01.577Z,8.62
2023-04-12T00:39:29.300Z,8.60
2023-04-12T00:41:57.664Z,8.63
2023-04-12T00:44:24.859Z,8.63
2023-04-12T00:46:52.407Z,8.57
2023-04-12T00:49:19.833Z,8.65
2023-04-12T00:51:46.999Z,8.60
2023-04-12T00:54:18.355Z,8.63
2023-04-12T00:56:47.489Z,8.59
2023-04-12T00:59:14.853Z,8.59
2023-04-12T01:01:42.139Z,8.53
2023-04-12T01:04:09.560Z,8.56
2023-04-12T01:06:42.605Z,8.59
2023-04-12T01:09:31.677Z,8.59
2023-04-12T01:12:08.039Z,8.57
2023-04-12T01:14:49.919Z,8.56
2023-04-12T01:17:27.689Z,8.56
2023-04-12T01:20:06.599Z,8.55
2023-04-12T01:22:42.837Z,8.55
2023-04-12T01:25:35.088Z,8.57
2023-04-12T01:28:06.190Z,8.52
2023-04-12T01:30:34.499Z,8.56
2023-04-12T01:33:05.557Z,8.59
2023-04-12T01:35:35.176Z,8.61
2023-04-12T01:38:04.448Z,8.63
2023-04-12T01:40:31.964Z,8.62
2023-04-12T01:43:09.369Z,8.65
2023-04-12T01:45:36.957Z,8.66
2023-04-12T01:48:09.641Z,8.67
2023-04-12T01:50:46.180Z,8.66
2023-04-12T01:53:20.457Z,8.63
2023-04-12T01:55:49.219Z,8.61
2023-04-12T01:58:21.610Z,8.61
2023-04-12T02:00:51.282Z,8.65
2023-04-12T02:03:22.108Z,8.60
2023-04-12T02:05:52.070Z,8.62
2023-04-12T02:08:21.953Z,8.60
2023-04-12T02:10:49.178Z,8.60
2023-04-12T02:13:18.361Z,8.51
2023-04-12T02:15:46.134Z,8.54
2023-04-12T02:18:14.080Z,8.54
2023-04-12T02:20:44.109Z,8.57
2023-04-12T02:23:11.381Z,8.57
2023-04-12T02:25:41.571Z,8.58
2023-04-12T02:28:08.794Z,8.53
2023-04-12T02:30:36.500Z,8.47
2023-04-12T02:33:04.661Z,8.46
2023-04-12T02:35:35.015Z,8.34
2023-04-12T02:38:08.802Z,8.29
2023-04-12T02:40:41.124Z,8.23
2023-04-12T02:43:11.317Z,8.17
2023-04-12T02:45:42.640Z,8.15
2023-04-12T02:48:11.200Z,8.12
2023-04-12T02:50:38.647Z,8.16
2023-04-12T02:53:16.334Z,8.18
2023-04-12T02:55:47.337Z,8.11
2023-04-12T02:58:16.906Z,8.21
2023-04-12T03:00:50.170Z,8.21
2023-04-12T03:03:22.184Z,8.23
2023-04-12T03:05:53.421Z,8.26
2023-04-12T03:08:20.744Z,8.27
2023-04-12T03:10:58.322Z,8.29
2023-04-12T03:13:26.693Z,8.28
2023-04-12T03:15:58.662Z,8.33
2023-04-12T03:18:32.755Z,8.33
2023-04-12T03:21:00.162Z,8.35
2023-04-12T03:23:28.285Z,8.36
2023-04-12T03:26:13.963Z,8.31
2023-04-12T03:29:01.521Z,8.28
2023-04-12T03:31:32.145Z,8.22
2023-04-12T03:34:04.554Z,8.26
2023-04-12T03:36:32.148Z,8.30
2023-04-12T03:39:07.573Z,8.31
2023-04-12T03:41:37.282Z,8.32
2023-04-12T03:44:05.637Z,8.34
2023-04-12T03:46:34.721Z,8.37
2023-04-12T03:49:06.441Z,8.39
2023-04-12T03:51:34.432Z,8.40
2023-04-12T03:54:04.729Z,8.45
2023-04-12T03:56:42.479Z,8.39
2023-04-12T03:59:18.825Z,8.45
2023-04-12T04:01:49.324Z,8.49
2023-04-12T04:04:17.042Z,8.52
2023-04-12T04:06:44.527Z,8.42
2023-04-12T04:09:11.922Z,8.45
2023-04-12T04:11:39.223Z,8.52
2023-04-12T04:14:07.847Z,8.51
2023-04-12T04:16:36.145Z,8.50
2023-04-12T04:19:05.962Z,8.44
2023-04-12T04:21:33.827Z,8.48
2023-04-12T04:24:01.500Z,8.53
2023-04-12T04:26:33.771Z,8.49
2023-04-12T04:29:30.603Z,8.47
2023-04-12T04:32:00.738Z,8.40
2023-04-12T04:34:28.346Z,8.41
2023-04-12T04:37:03.908Z,8.40
2023-04-12T04:39:31.100Z,8.42
2023-04-12T04:42:00.035Z,8.49
2023-04-12T04:44:37.541Z,8.44
2023-04-12T04:47:08.826Z,8.42
2023-04-12T04:49:39.182Z,8.48
2023-04-12T04:52:19.830Z,8.53
2023-04-12T04:54:48.546Z,8.61
2023-04-12T04:57:15.960Z,8.65
2023-04-12T04:59:43.853Z,8.64
2023-04-12T05:02:19.457Z,8.67
2023-04-12T05:04:46.750Z,8.69
2023-04-12T05:07:17.492Z,8.71
2023-04-12T05:09:46.767Z,8.70
2023-04-12T05:12:14.095Z,8.78
2023-04-12T05:14:47.963Z,8.82
2023-04-12T05:17:18.862Z,8.82
2023-04-12T05:19:45.964Z,8.86
2023-04-12T05:22:14.235Z,8.83
2023-04-12T05:24:41.433Z,8.82
2023-04-12T05:27:09.235Z,8.81
2023-04-12T05:29:36.546Z,8.80
2023-04-12T05:32:06.224Z,8.86
2023-04-12T05:34:33.576Z,8.87
2023-04-12T05:37:00.889Z,9.05
2023-04-12T05:39:33.771Z,9.13
2023-04-12T05:42:01.301Z,9.12
2023-04-12T05:44:28.561Z,9.10
2023-04-12T05:46:56.134Z,9.06
2023-04-12T05:49:23.784Z,9.01
2023-04-12T05:51:51.314Z,8.95
2023-04-12T05:54:21.739Z,8.90
2023-04-12T05:56:54.612Z,8.85
2023-04-12T05:59:22.920Z,8.83
2023-04-12T06:01:50.734Z,8.82
2023-04-12T06:04:20.028Z,8.90
2023-04-12T06:06:47.721Z,8.94
2023-04-12T06:09:15.854Z,8.97
2023-04-12T06:11:43.883Z,9.04
2023-04-12T06:14:11.962Z,9.06
2023-04-12T06:16:41.388Z,9.13
2023-04-12T06:19:09.139Z,9.12
2023-04-12T06:21:36.324Z,9.15
2023-04-12T06:24:03.747Z,9.14
2023-04-12T06:26:38.862Z,9.17
2023-04-12T06:29:07.349Z,9.19
2023-04-12T06:31:35.122Z,9.24
2023-04-12T06:34:02.717Z,9.27
2023-04-12T06:36:30.032Z,9.27
2023-04-12T06:38:57.491Z,9.26
2023-04-12T06:41:26.033Z,9.25
2023-04-12T06:44:00.244Z,9.35
2023-04-12T06:46:28.599Z,9.43
2023-04-12T06:48:55.948Z,9.48
2023-04-12T06:51:23.370Z,9.43
2023-04-12T06:53:50.548Z,9.48
2023-04-12T06:56:18.744Z,9.56
2023-04-12T06:58:46.379Z,9.59
2023-04-12T07:01:16.245Z,9.58
2023-04-12T07:03:43.550Z,9.56
2023-04-12T07:06:23.737Z,9.54
2023-04-12T07:08:51.912Z,9.57
2023-04-12T07:11:21.735Z,9.58
2023-04-12T07:13:49.807Z,9.65
2023-04-12T07:16:17.810Z,9.70
2023-04-12T07:18:44.971Z,9.70
2023-04-12T07:21:14.661Z,9.84
2023-04-12T07:23:41.866Z,9.88
2023-04-12T07:26:09.043Z,9.88
2023-04-12T07:28:39.458Z,9.91
2023-04-12T07:31:07.097Z,9.93
2023-04-12T07:33:36.294Z,9.90
2023-04-12T07:36:04.910Z,9.91
2023-04-12T07:38:32.155Z,9.77
2023-04-12T07:40:59.230Z,9.98
2023-04-12T07:43:26.399Z,10.00
2023-04-12T07:45:56.004Z,10.02
2023-04-12T07:48:23.326Z,9.99
2023-04-12T07:50:50.882Z,10.16
2023-04-12T07:53:23.683Z,10.32
2023-04-12T07:55:51.593Z,10.44
2023-04-12T07:58:19.541Z,10.61
2023-04-12T08:00:47.210Z,10.72
2023-04-12T08:03:16.364Z,10.80
2023-04-12T08:05:44.499Z,11.02
2023-04-12T08:08:12.234Z,11.30
2023-04-12T08:10:40.095Z,11.50
2023-04-12T08:13:07.567Z,11.50
2023-04-12T08:15:34.707Z,11.44
2023-04-12T08:18:02.814Z,11.36
2023-04-12T08:20:30.514Z,11.28
2023-04-12T08:22:57.840Z,11.42
2023-04-12T08:25:25.043Z,11.47
2023-04-12T08:27:52.144Z,11.50
2023-04-12T08:30:20.091Z,11.70
2023-04-12T08:32:47.231Z,12.07
2023-04-12T08:35:15.328Z,12.37
2023-04-12T08:37:42.573Z,12.64
2023-04-12T08:40:09.922Z,12.85
2023-04-12T08:42:38.443Z,12.90
2023-04-12T08:45:07.437Z,12.77
2023-04-12T08:47:40.962Z,12.64
2023-04-12T08:50:09.765Z,12.42
2023-04-12T08:52:38.169Z,12.22
2023-04-12T08:55:07.015Z,12.05
2023-04-12T08:57:36.383Z,11.92
2023-04-12T09:00:05.051Z,11.69
2023-04-12T09:02:32.269Z,11.43
2023-04-12T09:04:59.918Z,11.24
2023-04-12T09:07:30.846Z,11.15
2023-04-12T09:09:58.990Z,10.97
2023-04-12T09:12:26.497Z,11.00
2023-04-12T09:15:14.393Z,10.99
2023-04-12T09:17:43.131Z,11.01
2023-04-12T09:20:13.048Z,11.05
2023-04-12T09:22:44.649Z,11.08
2023-04-12T09:25:13.059Z,11.12
2023-04-12T09:27:54.484Z,11.22
2023-04-12T09:30:21.809Z,11.32
2023-04-12T09:32:53.721Z,11.43
2023-04-12T09:35:35.254Z,11.47
2023-04-12T09:38:09.767Z,11.46
2023-04-12T09:40:37.979Z,11.41
2023-04-12T09:43:05.223Z,11.38
2023-04-12T09:45:35.907Z,11.38
2023-04-12T09:48:03.208Z,11.41
2023-04-12T09:50:33.718Z,11.42
2023-04-12T09:53:20.348Z,11.48
2023-04-12T09:55:49.399Z,11.47
2023-04-12T09:58:20.782Z,11.50
2023-04-12T10:00:48.613Z,11.57
2023-04-12T10:03:16.200Z,11.69
2023-04-12T10:05:44.914Z,11.74
2023-04-12T10:08:13.394Z,11.85
2023-04-12T10:10:40.675Z,11.89
2023-04-12T10:13:10.448Z,12.00
2023-04-12T10:15:38.360Z,12.08
2023-04-12T10:18:08.408Z,12.16
2023-04-12T10:20:36.373Z,12.18
2023-04-12T10:23:06.838Z,12.29
2023-04-12T10:25:34.828Z,12.38
2023-04-12T10:28:19.214Z,12.45
2023-04-12T10:30:49.770Z,12.40
2023-04-12T10:33:19.730Z,12.37
2023-04-12T10:36:04.120Z,12.31
2023-04-12T10:38:44.903Z,12.29
2023-04-12T10:41:20.395Z,12.28
2023-04-12T10:44:27.013Z,12.31
2023-04-12T10:46:54.331Z,12.32
2023-04-12T10:49:22.644Z,12.34
2023-04-12T10:52:02.045Z,12.34
2023-04-12T10:54:29.876Z,12.29
2023-04-12T10:56:57.726Z,12.30
2023-04-12T10:59:57.042Z,12.31
2023-04-12T11:02:24.560Z,12.38
2023-04-12T11:05:10.442Z,12.37
2023-04-12T11:08:07.317Z,12.34
2023-04-12T11:10:41.944Z,12.36
2023-04-12T11:13:15.342Z,12.45
2023-04-12T11:15:42.808Z,12.39
2023-04-12T11:18:13.236Z,12.38
2023-04-12T11:20:43.499Z,12.37
2023-04-12T11:23:12.522Z,12.30
2023-04-12T11:25:40.555Z,12.20
2023-04-12T11:28:21.268Z,12.20
2023-04-12T11:30:56.718Z,12.26
2023-04-12T11:33:40.531Z,12.34
2023-04-12T11:36:12.995Z,12.25
2023-04-12T11:38:40.979Z,12.19
2023-04-12T11:41:09.447Z,12.28
2023-04-12T11:43:40.658Z,12.31
2023-04-12T11:46:08.191Z,12.35
2023-04-12T11:48:38.972Z,12.37
2023-04-12T11:51:25.201Z,12.45
2023-04-12T11:53:54.748Z,12.47
2023-04-12T11:56:22.861Z,12.50
2023-04-12T11:58:51.124Z,12.59
2023-04-12T12:01:20.566Z,12.69
2023-04-12T12:03:48.841Z,12.74
2023-04-12T12:06:17.458Z,12.82
2023-04-12T12:08:44.760Z,12.89
2023-04-12T12:11:12.960Z,12.89
2023-04-12T12:13:53.597Z,12.84
2023-04-12T12:16:28.647Z,12.86
2023-04-12T12:18:57.408Z,12.87
2023-04-12T12:21:27.530Z,12.80
2023-04-12T12:23:57.326Z,12.84
2023-04-12T12:26:27.415Z,12.89
2023-04-12T12:28:56.116Z,12.83
2023-04-12T12:31:26.560Z,12.80
2023-04-12T12:33:59.179Z,12.72
2023-04-12T12:36:34.067Z,12.74
2023-04-12T12:39:07.291Z,12.69
2023-04-12T12:41:35.071Z,12.66
2023-04-12T12:44:02.881Z,12.64
2023-04-12T12:46:48.384Z,12.63
2023-04-12T12:49:18.057Z,12.60
2023-04-12T12:51:45.585Z,12.61
2023-04-12T12:54:12.951Z,12.72
2023-04-12T12:56:40.232Z,12.73
2023-04-12T12:59:07.497Z,12.81
2023-04-12T13:01:34.808Z,12.81
2023-04-12T13:04:02.369Z,12.77
2023-04-12T13:06:29.804Z,12.71
2023-04-12T13:08:57.432Z,12.72
2023-04-12T13:11:24.838Z,12.77
2023-04-12T13:13:51.954Z,12.72
2023-04-12T13:16:19.177Z,12.61
2023-04-12T13:18:46.390Z,12.65
2023-04-12T13:21:13.530Z,12.59
2023-04-12T13:23:40.717Z,12.56
2023-04-12T13:26:07.908Z,12.50
2023-04-12T13:28:35.109Z,12.49
2023-04-12T13:31:02.454Z,12.40
2023-04-12T13:33:29.623Z,12.35
2023-04-12T13:35:56.927Z,12.30
2023-04-12T13:38:24.121Z,12.38
2023-04-12T13:40:51.312Z,12.36
2023-04-12T13:43:18.528Z,12.33
2023-04-12T13:45:45.815Z,12.32
2023-04-12T13:48:13.139Z,12.27
2023-04-12T13:50:40.466Z,12.26
2023-04-12T13:53:07.592Z,12.27
2023-04-12T13:55:34.735Z,12.22
2023-04-12T13:58:01.886Z,12.20
2023-04-12T14:00:29.076Z,12.19
2023-04-12T14:02:57.280Z,12.18
2023-04-12T14:05:24.502Z,12.18
2023-04-12T14:07:52.752Z,12.15
2023-04-12T14:10:19.900Z,12.19
2023-04-12T14:12:47.139Z,12.15
2023-04-12T14:15:14.307Z,12.21
2023-04-12T14:17:41.645Z,12.36
2023-04-12T14:20:12.911Z,12.37
2023-04-12T14:22:40.116Z,12.35
2023-04-12T14:25:08.283Z,12.44
2023-04-12T14:27:35.645Z,12.51
2023-04-12T14:30:03.109Z,12.53
2023-04-12T14:32:30.482Z,12.54
2023-04-12T14:34:57.778Z,12.56
2023-04-12T14:37:24.948Z,12.62
2023-04-12T14:39:55.012Z,12.63
2023-04-12T14:42:22.276Z,12.77
2023-04-12T14:44:49.501Z,12.81
2023-04-12T14:47:16.729Z,12.90
2023-04-12T14:49:44.099Z,12.88
2023-04-12T14:52:11.400Z,12.75
2023-04-12T14:54:38.611Z,12.67
2023-04-12T14:57:05.887Z,12.53
2023-04-12T14:59:33.352Z,12.46
2023-04-12T15:02:00.853Z,12.44
2023-04-12T15:04:28.269Z,12.36
2023-04-12T15:06:55.773Z,12.41
2023-04-12T15:09:23.512Z,12.47
2023-04-12T15:11:55.141Z,12.47
2023-04-12T15:14:23.266Z,12.46
2023-04-12T15:16:50.580Z,12.49
2023-04-12T15:19:22.932Z,12.55
2023-04-12T15:21:52.339Z,12.55
2023-04-12T15:24:20.063Z,12.55
2023-04-12T15:26:48.732Z,12.55
2023-04-12T15:29:16.851Z,12.54
2023-04-12T15:31:44.122Z,12.52
2023-04-12T15:34:13.617Z,12.47
2023-04-12T15:36:43.269Z,12.42
2023-04-12T15:39:11.424Z,12.30
2023-04-12T15:41:39.972Z,12.31
2023-04-12T15:44:09.580Z,12.22
2023-04-12T15:46:36.747Z,12.20
2023-04-12T15:49:04.362Z,12.15
2023-04-12T15:51:32.497Z,12.14
2023-04-12T15:54:00.178Z,12.12
2023-04-12T15:56:28.160Z,12.07
2023-04-12T15:58:57.658Z,12.07
2023-04-12T16:01:25.836Z,12.10
2023-04-12T16:03:53.673Z,12.15
2023-04-12T16:06:21.290Z,12.12
2023-04-12T16:08:50.611Z,12.00
2023-04-12T16:11:19.130Z,12.07
2023-04-12T16:13:48.350Z,12.03
2023-04-12T16:16:17.896Z,11.92
2023-04-12T16:18:46.322Z,11.89
2023-04-12T16:21:20.106Z,11.81
2023-04-12T16:23:48.885Z,11.72
2023-04-12T16:26:22.199Z,11.70
2023-04-12T16:28:50.676Z,11.63
2023-04-12T16:31:19.906Z,11.62
2023-04-12T16:33:49.740Z,11.58
2023-04-12T16:36:17.099Z,11.54
2023-04-12T16:38:45.840Z,11.46
2023-04-12T16:41:13.178Z,11.44
2023-04-12T16:43:41.973Z,11.35
2023-04-12T16:46:10.868Z,11.33
2023-04-12T16:48:41.783Z,11.35
2023-04-12T16:51:09.055Z,11.31
2023-04-12T16:53:37.275Z,11.31
2023-04-12T16:56:07.392Z,11.33
2023-04-12T16:58:34.607Z,11.29
2023-04-12T17:01:02.159Z,11.21
2023-04-12T17:03:30.429Z,11.15
2023-04-12T17:05:58.138Z,11.20
2023-04-12T17:08:25.278Z,11.16
2023-04-12T17:10:52.560Z,11.12
2023-04-12T17:13:20.527Z,11.03
2023-04-12T17:15:50.699Z,11.00
2023-04-12T17:18:18.053Z,10.95
2023-04-12T17:20:45.547Z,10.85
2023-04-12T17:23:13.731Z,10.80
2023-04-12T17:25:42.019Z,10.77
2023-04-12T17:28:09.614Z,10.68
2023-04-12T17:30:37.277Z,10.63
2023-04-12T17:33:05.244Z,10.58
2023-04-12T17:35:32.420Z,10.54
2023-04-12T17:37:59.724Z,10.46
2023-04-12T17:40:27.334Z,10.42
2023-04-12T17:42:54.469Z,10.38
2023-04-12T17:45:22.151Z,10.35
2023-04-12T17:47:49.595Z,10.30
2023-04-12T17:50:17.048Z,10.21
2023-04-12T17:52:44.698Z,10.21
2023-04-12T17:55:13.074Z,10.16
2023-04-12T17:57:40.915Z,10.13
2023-04-12T18:00:14.638Z,10.07
2023-04-12T18:02:44.125Z,10.04
2023-04-12T18:05:11.674Z,10.00
2023-04-12T18:07:40.351Z,9.98
2023-04-12T18:10:13.053Z,9.97
2023-04-12T18:12:41.116Z,9.94
2023-04-12T18:15:08.951Z,9.91
2023-04-12T18:17:36.504Z,9.86
2023-04-12T18:20:08.987Z,9.83
2023-04-12T18:22:36.342Z,9.79
2023-04-12T18:25:03.824Z,9.69
2023-04-12T18:27:32.250Z,9.75
2023-04-12T18:30:01.572Z,9.69
2023-04-12T18:32:28.894Z,9.68
2023-04-12T18:34:56.076Z,9.63
2023-04-12T18:37:23.251Z,9.65
2023-04-12T18:39:53.093Z,9.63
2023-04-12T18:42:20.536Z,9.62
2023-04-12T18:44:47.850Z,9.63
2023-04-12T18:47:14.999Z,9.61
2023-04-12T18:49:42.182Z,9.57
2023-04-12T18:52:09.605Z,9.54
2023-04-12T18:54:36.720Z,9.54
2023-04-12T18:57:03.994Z,9.55
2023-04-12T18:59:31.372Z,9.51
2023-04-12T19:01:58.716Z,9.51
2023-04-12T19:04:25.930Z,9.50
2023-04-12T19:06:53.301Z,9.57
2023-04-12T19:09:20.497Z,9.56
2023-04-12T19:11:47.736Z,9.55
2023-04-12T19:14:15.038Z,9.53
2023-04-12T19:16:42.873Z,9.52
2023-04-12T19:19:10.123Z,9.56
2023-04-12T19:21:37.989Z,9.56
2023-04-12T19:24:05.461Z,9.55
2023-04-12T19:26:32.803Z,9.48
2023-04-12T19:29:00.028Z,9.44
2023-04-12T19:31:27.260Z,9.41
2023-04-12T19:33:55.897Z,9.40
2023-04-12T19:36:24.899Z,9.35
2023-04-12T19:38:52.619Z,9.37
2023-04-12T19:41:20.761Z,9.33
2023-04-12T19:43:48.031Z,9.28
2023-04-12T19:46:15.504Z,9.33
2023-04-12T19:48:42.939Z,9.27
2023-04-12T19:51:10.069Z,9.31
2023-04-12T19:53:37.225Z,9.27
2023-04-12T19:56:04.664Z,9.20
2023-04-12T19:58:32.339Z,9.12
2023-04-12T20:01:02.494Z,9.09
2023-04-12T20:03:30.320Z,9.08
2023-04-12T20:06:04.265Z,8.98
2023-04-12T20:08:32.108Z,9.07
2023-04-12T20:10:59.701Z,9.06
2023-04-12T20:13:27.473Z,9.01
2023-04-12T20:15:55.026Z,9.06
2023-04-12T20:18:22.329Z,9.05
2023-04-12T20:20:50.047Z,9.01
2023-04-12T20:23:17.280Z,9.05
2023-04-12T20:25:49.157Z,9.04
2023-04-12T20:28:16.316Z,9.03
2023-04-12T20:30:43.774Z,9.01
2023-04-12T20:33:10.949Z,9.02
2023-04-12T20:35:38.482Z,9.02
2023-04-12T20:38:05.849Z,9.03
2023-04-12T20:40:32.999Z,9.04
2023-04-12T20:43:00.486Z,9.05
2023-04-12T20:45:27.695Z,9.08
2023-04-12T20:47:54.848Z,9.13
2023-04-12T20:50:24.740Z,9.10
2023-04-12T20:52:52.555Z,9.15
2023-04-12T20:55:19.829Z,9.10
2023-04-12T20:57:46.856Z,9.16
2023-04-12T21:00:19.139Z,9.19
2023-04-12T21:02:46.852Z,9.14
2023-04-12T21:05:17.083Z,9.13
2023-04-12T21:07:47.082Z,9.08
2023-04-12T21:10:15.188Z,9.05
2023-04-12T21:12:42.977Z,9.10
2023-04-12T21:15:11.959Z,9.08
2023-04-12T21:17:39.960Z,9.09
2023-04-12T21:20:13.929Z,9.06
2023-04-12T21:22:43.449Z,9.11
2023-04-12T21:25:17.541Z,9.13
2023-04-12T21:27:47.829Z,9.13
2023-04-12T21:30:15.853Z,9.15
2023-04-12T21:32:44.100Z,9.12
2023-04-12T21:35:11.710Z,9.10
2023-04-12T21:37:39.669Z,9.02
2023-04-12T21:40:09.694Z,9.03
2023-04-12T21:42:37.789Z,9.00
2023-04-12T21:45:06.150Z,9.03
2023-04-12T21:47:33.267Z,9.02
2023-04-12T21:50:00.965Z,8.99
2023-04-12T21:52:28.163Z,9.00
2023-04-12T21:54:55.962Z,8.94
2023-04-12T21:57:23.059Z,8.94
2023-04-12T21:59:50.162Z,8.95
2023-04-12T22:02:17.325Z,8.93
2023-04-12T22:04:44.512Z,8.87
2023-04-12T22:07:13.263Z,8.82
2023-04-12T22:09:41.624Z,8.84
2023-04-12T22:12:09.436Z,8.81
2023-04-12T22:14:37.303Z,8.77
2023-04-12T22:17:06.168Z,8.75
2023-04-12T22:19:33.317Z,8.71
2023-04-12T22:22:01.748Z,8.70
2023-04-12T22:24:29.633Z,8.70
2023-04-12T22:26:57.666Z,8.65
2023-04-12T22:29:25.527Z,8.63
2023-04-12T22:31:52.898Z,8.58
2023-04-12T22:34:20.127Z,8.37
2023-04-12T22:36:52.453Z,8.58
2023-04-12T22:39:20.400Z,8.56
2023-04-12T22:41:53.321Z,8.47
2023-04-12T22:44:23.740Z,8.51
2023-04-12T22:46:54.620Z,8.46
2023-04-12T22:49:28.497Z,8.45
2023-04-12T22:51:56.095Z,8.48
2023-04-12T22:54:26.687Z,8.41
2023-04-12T22:56:54.036Z,8.41
2023-04-12T22:59:23.336Z,8.35
2023-04-12T23:01:50.650Z,8.33
2023-04-12T23:04:18.600Z,8.14
2023-04-12T23:06:47.521Z,8.23
2023-04-12T23:09:15.873Z,8.21
2023-04-12T23:11:43.026Z,8.17
2023-04-12T23:14:10.568Z,8.15
2023-04-12T23:16:42.751Z,8.15
2023-04-12T23:19:10.721Z,8.12
2023-04-12T23:21:37.992Z,8.07
2023-04-12T23:24:05.704Z,7.93
2023-04-12T23:26:34.557Z,8.00
2023-04-12T23:29:04.230Z,8.00
2023-04-12T23:31:32.584Z,7.96
2023-04-12T23:34:04.024Z,7.95
2023-04-12T23:36:31.237Z,7.91
2023-04-12T23:39:05.650Z,7.92
2023-04-12T23:41:33.922Z,7.86
2023-04-12T23:44:01.400Z,7.77
2023-04-12T23:46:28.711Z,7.73
2023-04-12T23:48:56.284Z,7.81
2023-04-12T23:51:23.477Z,7.82
2023-04-12T23:53:50.620Z,7.82
2023-04-12T23:56:18.097Z,7.84
2023-04-12T23:58:45.187Z,7.83
